createdAt,value
2023-11-15T00:01:07.718Z,6.37
2023-11-15T00:06:10.457Z,8.17
2023-11-15T00:08:40.334Z,6.03
2023-11-15T00:11:10.166Z,6.03
2023-11-15T00:13:39.895Z,8.63
2023-11-15T00:16:11.399Z,8.30
2023-11-15T00:18:41.444Z,8.10
2023-11-15T00:21:13.711Z,8.10
2023-11-15T00:23:43.566Z,6.32
2023-11-15T00:26:13.258Z,5.33
2023-11-15T00:28:51.542Z,7.50
2023-11-15T00:31:21.212Z,10.10
2023-11-15T00:33:51.115Z,5.10
2023-11-15T00:36:23.456Z,7.43
2023-11-15T00:38:53.565Z,10.98
2023-11-15T00:41:23.276Z,8.80
2023-11-15T00:43:52.921Z,8.33
2023-11-15T00:46:22.522Z,7.80
2023-11-15T00:48:52.178Z,6.77
2023-11-15T00:51:24.434Z,7.03
2023-11-15T00:53:54.090Z,5.82
2023-11-15T00:56:23.731Z,7.43
2023-11-15T00:58:55.332Z,7.10
2023-11-15T01:01:26.658Z,6.00
2023-11-15T01:03:59.937Z,5.87
2023-11-15T01:06:32.273Z,6.57
2023-11-15T01:09:04.431Z,6.88
2023-11-15T01:11:34.103Z,7.75
2023-11-15T01:14:04.418Z,7.60
2023-11-15T01:16:34.152Z,5.27
2023-11-15T01:19:04.230Z,10.40
2023-11-15T01:21:36.584Z,10.90
2023-11-15T01:24:07.134Z,8.35
2023-11-15T01:26:36.943Z,8.97
2023-11-15T01:29:06.724Z,8.00
2023-11-15T01:31:36.441Z,8.13
2023-11-15T01:34:07.356Z,10.40
2023-11-15T01:36:39.673Z,8.30
2023-11-15T01:39:17.444Z,9.67
2023-11-15T01:41:50.051Z,8.13
2023-11-15T01:44:20.371Z,8.88
2023-11-15T01:46:52.049Z,5.70
2023-11-15T01:49:25.013Z,11.07
2023-11-15T01:51:58.295Z,9.60
2023-11-15T01:54:28.317Z,5.77
2023-11-15T01:56:58.004Z,8.23
2023-11-15T01:59:27.753Z,7.07
2023-11-15T02:01:57.718Z,7.80
2023-11-15T02:04:27.361Z,7.87
2023-11-15T02:06:59.609Z,7.70
2023-11-15T02:09:30.900Z,8.85
2023-11-15T02:12:00.822Z,7.50
2023-11-15T02:14:32.005Z,9.37
2023-11-15T02:17:01.865Z,3.97
2023-11-15T02:19:31.507Z,7.17
2023-11-15T02:22:04.729Z,6.97
2023-11-15T02:24:36.938Z,7.37
2023-11-15T02:27:07.208Z,7.72
2023-11-15T02:29:36.945Z,6.93
2023-11-15T02:32:07.181Z,9.40
2023-11-15T02:34:36.989Z,8.07
2023-11-15T02:37:06.948Z,6.63
2023-11-15T02:39:39.236Z,8.23
2023-11-15T02:42:09.210Z,5.20
2023-11-15T02:44:38.916Z,9.43
2023-11-15T02:47:08.811Z,8.03
2023-11-15T02:49:38.631Z,10.17
2023-11-15T02:52:09.265Z,7.93
2023-11-15T02:54:41.461Z,6.90
2023-11-15T02:57:12.218Z,5.40
2023-11-15T02:59:41.904Z,10.33
2023-11-15T03:02:11.702Z,11.20
2023-11-15T03:04:42.330Z,8.10
2023-11-15T03:07:12.030Z,6.27
2023-11-15T03:09:44.232Z,10.33
2023-11-15T03:12:13.960Z,7.53
2023-11-15T03:14:43.660Z,6.77
2023-11-15T03:17:18.358Z,7.57
2023-11-15T03:19:48.298Z,6.27
2023-11-15T03:22:18.882Z,8.93
2023-11-15T03:24:51.408Z,8.93
2023-11-15T03:27:21.596Z,6.17
2023-11-15T03:29:51.476Z,6.03
2023-11-15T03:32:21.274Z,6.03
2023-11-15T03:34:51.239Z,6.10
2023-11-15T03:37:20.907Z,3.17
2023-11-15T03:39:54.326Z,4.43
2023-11-15T03:42:24.656Z,2.90
2023-11-15T03:44:54.398Z,6.10
2023-11-15T03:47:24.396Z,5.43
2023-11-15T03:49:54.111Z,6.17
2023-11-15T03:52:23.799Z,4.17
2023-11-15T03:54:56.229Z,4.67
2023-11-15T03:57:26.044Z,6.30
2023-11-15T04:00:00.523Z,4.13
2023-11-15T04:02:31.028Z,4.07
2023-11-15T04:05:00.952Z,4.43
2023-11-15T04:07:30.792Z,5.97
2023-11-15T04:10:03.470Z,3.70
2023-11-15T04:15:05.034Z,4.50
2023-11-15T04:17:34.992Z,7.55
2023-11-15T04:20:05.942Z,3.23
2023-11-15T04:22:35.605Z,6.80
2023-11-15T04:25:09.598Z,8.50
2023-11-15T04:27:39.315Z,6.50
2023-11-15T04:30:11.293Z,5.47
2023-11-15T04:32:41.143Z,4.20
2023-11-15T04:35:12.181Z,7.57
2023-11-15T04:37:42.096Z,4.67
2023-11-15T04:40:15.305Z,6.50
2023-11-15T04:42:44.873Z,6.30
2023-11-15T04:45:14.569Z,3.07
2023-11-15T04:47:44.370Z,5.43
2023-11-15T04:50:14.012Z,4.97
2023-11-15T04:52:44.339Z,4.13
2023-11-15T04:55:16.695Z,3.63
2023-11-15T04:57:46.811Z,5.05
2023-11-15T05:00:17.615Z,6.97
2023-11-15T05:02:47.394Z,3.57
2023-11-15T05:05:17.364Z,6.00
2023-11-15T05:07:47.183Z,5.47
2023-11-15T05:10:20.941Z,3.97
2023-11-15T05:12:50.668Z,6.83
2023-11-15T05:15:20.361Z,7.07
2023-11-15T05:17:50.230Z,5.53
2023-11-15T05:20:19.923Z,6.50
2023-11-15T05:22:49.594Z,5.60
2023-11-15T05:25:22.527Z,4.20
2023-11-15T05:27:52.629Z,4.00
2023-11-15T05:30:23.146Z,7.07
2023-11-15T05:32:52.826Z,7.40
2023-11-15T05:35:23.267Z,5.50
2023-11-15T05:37:53.052Z,8.87
2023-11-15T05:40:25.388Z,4.67
2023-11-15T05:42:54.985Z,4.93
2023-11-15T05:45:26.905Z,7.03
2023-11-15T05:47:56.573Z,9.50
2023-11-15T05:50:26.260Z,5.57
2023-11-15T05:52:56.439Z,6.63
2023-11-15T05:55:29.801Z,6.40
2023-11-15T05:57:59.491Z,6.13
2023-11-15T06:00:29.159Z,5.00
2023-11-15T06:02:58.870Z,6.93
2023-11-15T06:05:30.690Z,9.80
2023-11-15T06:08:03.433Z,7.00
2023-11-15T06:10:37.408Z,8.73
2023-11-15T06:13:07.956Z,7.45
2023-11-15T06:15:37.515Z,4.90
2023-11-15T06:18:08.120Z,4.10
2023-11-15T06:20:39.617Z,7.57
2023-11-15T06:23:10.151Z,7.37
2023-11-15T06:25:45.235Z,6.13
2023-11-15T06:28:15.218Z,4.27
2023-11-15T06:30:46.547Z,4.87
2023-11-15T06:33:17.222Z,6.30
2023-11-15T06:35:47.434Z,3.40
2023-11-15T06:38:17.593Z,9.27
2023-11-15T06:40:50.406Z,4.70
2023-11-15T06:43:20.197Z,4.47
2023-11-15T06:45:49.776Z,3.10
2023-11-15T06:48:20.304Z,6.03
2023-11-15T06:50:50.129Z,5.27
2023-11-15T06:53:19.711Z,5.33
2023-11-15T06:55:54.102Z,5.27
2023-11-15T06:58:23.686Z,5.40
2023-11-15T07:00:53.669Z,5.30
2023-11-15T07:03:23.720Z,5.73
2023-11-15T07:05:53.493Z,5.40
2023-11-15T07:08:23.403Z,6.97
2023-11-15T07:10:56.136Z,5.60
2023-11-15T07:13:25.740Z,8.38
2023-11-15T07:15:55.358Z,5.33
2023-11-15T07:18:28.189Z,6.13
2023-11-15T07:20:58.619Z,6.23
2023-11-15T07:23:28.237Z,6.10
2023-11-15T07:26:00.445Z,9.37
2023-11-15T07:28:30.875Z,6.80
2023-11-15T07:31:00.850Z,8.80
2023-11-15T07:33:32.210Z,7.87
2023-11-15T07:36:01.938Z,9.70
2023-11-15T07:38:32.293Z,9.83
2023-11-15T07:41:04.432Z,8.80
2023-11-15T07:43:33.998Z,10.25
2023-11-15T07:46:03.564Z,9.70
2023-11-15T07:48:33.257Z,8.87
2023-11-15T07:51:04.490Z,8.43
2023-11-15T07:53:34.155Z,8.53
2023-11-15T07:56:07.577Z,9.43
2023-11-15T07:58:37.251Z,12.57
2023-11-15T08:01:09.731Z,9.50
2023-11-15T08:03:40.390Z,11.75
2023-11-15T08:06:11.222Z,7.03
2023-11-15T08:08:41.135Z,10.73
2023-11-15T08:11:13.969Z,10.33
2023-11-15T08:16:14.119Z,10.23
2023-11-15T08:18:43.850Z,15.93
2023-11-15T08:21:14.397Z,10.17
2023-11-15T08:23:44.774Z,10.13
2023-11-15T08:26:22.522Z,9.90
2023-11-15T08:28:52.232Z,10.37
2023-11-15T08:31:24.855Z,9.27
2023-11-15T08:33:54.860Z,10.73
2023-11-15T08:36:24.526Z,7.47
2023-11-15T08:38:54.150Z,10.20
2023-11-15T08:41:26.433Z,7.27
2023-11-15T08:43:56.060Z,10.25
2023-11-15T08:46:28.134Z,8.80
2023-11-15T08:48:57.832Z,8.82
2023-11-15T08:51:27.508Z,7.43
2023-11-15T08:53:58.723Z,9.93
2023-11-15T08:56:32.759Z,10.20
2023-11-15T08:59:04.060Z,6.67
2023-11-15T09:01:33.962Z,9.33
2023-11-15T09:04:03.780Z,7.87
2023-11-15T09:06:33.594Z,10.97
2023-11-15T09:09:05.531Z,9.00
2023-11-15T09:11:38.260Z,8.05
2023-11-15T09:14:09.467Z,9.63
2023-11-15T09:16:39.129Z,6.87
2023-11-15T09:19:11.762Z,8.17
2023-11-15T09:21:43.397Z,6.82
2023-11-15T09:24:13.374Z,7.40
2023-11-15T09:26:45.621Z,11.97
2023-11-15T09:29:15.466Z,6.45
2023-11-15T09:31:45.503Z,6.57
2023-11-15T09:34:15.414Z,5.87
2023-11-15T09:36:45.238Z,9.40
2023-11-15T09:39:17.823Z,7.50
2023-11-15T09:44:27.816Z,7.07
2023-11-15T09:46:59.378Z,7.40
2023-11-15T09:49:31.017Z,5.30
2023-11-15T09:52:01.978Z,7.57
2023-11-15T09:54:35.042Z,9.30
2023-11-15T09:57:07.842Z,9.80
2023-11-15T09:59:37.986Z,11.05
2023-11-15T10:02:07.732Z,7.77
2023-11-15T10:04:37.358Z,9.63
2023-11-15T10:07:08.680Z,10.83
2023-11-15T10:09:41.053Z,9.07
2023-11-15T10:12:13.861Z,10.40
2023-11-15T10:14:55.308Z,13.00
2023-11-15T10:17:41.839Z,11.53
2023-11-15T10:20:23.935Z,10.60
2023-11-15T10:22:54.434Z,10.30
2023-11-15T10:25:27.031Z,10.70
2023-11-15T10:28:04.835Z,9.00
2023-11-15T10:30:35.173Z,9.37
2023-11-15T10:33:11.894Z,12.10
2023-11-15T10:35:42.414Z,7.87
2023-11-15T10:38:16.220Z,14.10
2023-11-15T10:40:48.103Z,6.23
2023-11-15T10:43:20.419Z,7.65
2023-11-15T10:45:51.668Z,9.38
2023-11-15T10:48:24.777Z,7.30
2023-11-15T10:50:59.494Z,10.00
2023-11-15T10:53:31.413Z,10.87
2023-11-15T10:56:04.559Z,7.53
2023-11-15T10:58:40.743Z,7.37
2023-11-15T11:01:13.794Z,7.23
2023-11-15T11:03:44.045Z,7.77
2023-11-15T11:06:23.964Z,5.87
2023-11-15T11:09:03.606Z,7.13
2023-11-15T11:11:42.040Z,8.50
2023-11-15T11:14:22.622Z,6.80
2023-11-15T11:16:52.585Z,5.80
2023-11-15T11:19:23.734Z,7.00
2023-11-15T11:22:13.523Z,7.90
2023-11-15T11:24:47.733Z,6.43
2023-11-15T11:27:35.070Z,7.40
2023-11-15T11:30:22.388Z,9.80
2023-11-15T11:32:52.511Z,6.93
2023-11-15T11:35:32.533Z,8.03
2023-11-15T11:38:05.343Z,7.90
2023-11-15T11:40:40.639Z,9.53
2023-11-15T11:43:23.608Z,7.73
2023-11-15T11:48:28.018Z,15.98
2023-11-15T11:51:05.085Z,12.57
2023-11-15T11:53:39.507Z,8.17
2023-11-15T11:56:15.249Z,9.13
2023-11-15T11:58:46.138Z,9.30
2023-11-15T12:01:18.467Z,10.77
2023-11-15T12:04:02.767Z,7.25
2023-11-15T12:06:34.238Z,6.43
2023-11-15T12:09:03.947Z,5.63
2023-11-15T12:11:33.633Z,6.40
2023-11-15T12:14:05.412Z,5.37
2023-11-15T12:16:40.610Z,9.63
2023-11-15T12:19:13.949Z,13.60
2023-11-15T12:21:47.460Z,7.23
2023-11-15T12:24:23.869Z,8.13
2023-11-15T12:26:53.968Z,6.33
2023-11-15T12:29:25.879Z,7.60
2023-11-15T12:32:01.097Z,7.00
2023-11-15T12:34:31.472Z,8.03
2023-11-15T12:37:01.832Z,9.57
2023-11-15T12:39:39.400Z,6.43
2023-11-15T12:42:09.220Z,9.27
2023-11-15T12:44:47.258Z,8.70
2023-11-15T12:47:19.900Z,8.20
2023-11-15T12:49:49.700Z,8.05
2023-11-15T12:52:19.472Z,5.57
2023-11-15T12:54:59.124Z,5.63
2023-11-15T12:57:29.446Z,4.80
2023-11-15T12:59:59.119Z,7.13
2023-11-15T13:02:37.745Z,6.43
2023-11-15T13:05:10.267Z,5.70
2023-11-15T13:07:40.434Z,7.93
2023-11-15T13:10:11.991Z,4.47
2023-11-15T13:12:41.650Z,6.23
2023-11-15T13:15:19.007Z,8.40
2023-11-15T13:17:52.657Z,8.07
2023-11-15T13:20:22.406Z,5.93
2023-11-15T13:22:52.072Z,6.27
2023-11-15T13:25:21.699Z,5.27
2023-11-15T13:27:51.738Z,5.37
2023-11-15T13:30:21.578Z,4.63
2023-11-15T13:32:53.997Z,5.83
2023-11-15T13:35:23.728Z,6.50
2023-11-15T13:37:53.338Z,5.00
2023-11-15T13:40:22.981Z,4.70
2023-11-15T13:42:53.277Z,4.20
2023-11-15T13:45:24.347Z,5.10
2023-11-15T13:47:58.117Z,4.80
2023-11-15T13:50:27.901Z,4.87
2023-11-15T13:52:57.552Z,3.30
2023-11-15T13:55:29.327Z,3.03
2023-11-15T13:57:59.046Z,3.03
2023-11-15T14:00:34.776Z,2.67
2023-11-15T14:03:09.525Z,1.63
2023-11-15T14:05:42.639Z,2.43
2023-11-15T14:08:12.339Z,3.00
2023-11-15T14:10:43.820Z,2.63
2023-11-15T14:13:13.901Z,1.80
2023-11-15T14:15:45.732Z,2.83
2023-11-15T14:18:18.252Z,0.80
2023-11-15T14:20:49.390Z,2.10
2023-11-15T14:23:20.061Z,2.07
2023-11-15T14:25:49.646Z,1.83
2023-11-15T14:28:20.244Z,2.97
2023-11-15T14:30:49.969Z,3.90
2023-11-15T14:33:22.294Z,3.90
2023-11-15T14:35:52.057Z,2.40
2023-11-15T14:38:21.686Z,2.63
2023-11-15T14:40:51.335Z,2.77
2023-11-15T14:43:21.012Z,2.17
2023-11-15T14:45:51.558Z,3.13
2023-11-15T14:48:23.923Z,3.80
2023-11-15T14:50:53.810Z,4.65
2023-11-15T14:53:41.257Z,4.77
2023-11-15T14:56:11.450Z,2.30
2023-11-15T14:58:41.060Z,3.97
2023-11-15T15:01:10.715Z,4.33
2023-11-15T15:03:43.345Z,5.30
2023-11-15T15:06:13.924Z,4.45
2023-11-15T15:08:44.562Z,3.53
2023-11-15T15:11:14.330Z,5.43
2023-11-15T15:13:43.919Z,5.03
2023-11-15T15:16:14.808Z,3.37
2023-11-15T15:18:47.072Z,3.70
2023-11-15T15:21:16.678Z,1.63
2023-11-15T15:23:46.543Z,4.30
2023-11-15T15:26:19.620Z,3.27
2023-11-15T15:28:55.142Z,3.30
2023-11-15T15:31:24.938Z,4.00
2023-11-15T15:33:57.172Z,6.70
2023-11-15T15:36:26.810Z,1.75
2023-11-15T15:38:56.436Z,3.37
2023-11-15T15:41:28.649Z,5.23
2023-11-15T15:43:58.268Z,3.83
2023-11-15T15:46:27.932Z,3.13
2023-11-15T15:49:00.235Z,3.30
2023-11-15T15:51:30.020Z,2.13
2023-11-15T15:54:00.086Z,3.27
2023-11-15T15:56:30.832Z,7.23
2023-11-15T15:59:02.373Z,4.60
2023-11-15T16:01:32.605Z,6.10
2023-11-15T16:04:05.005Z,3.90
2023-11-15T16:06:36.026Z,3.85
2023-11-15T16:09:05.741Z,2.80
2023-11-15T16:11:35.357Z,2.00
2023-11-15T16:14:06.344Z,3.00
2023-11-15T16:16:35.977Z,4.33
2023-11-15T16:19:08.279Z,4.00
2023-11-15T16:21:37.926Z,2.88
2023-11-15T16:24:10.039Z,5.07
2023-11-15T16:26:40.270Z,3.97
2023-11-15T16:29:10.229Z,4.83
2023-11-15T16:31:39.813Z,3.20
2023-11-15T16:34:12.102Z,4.07
2023-11-15T16:36:42.038Z,6.22
2023-11-15T16:39:14.456Z,4.93
2023-11-15T16:41:52.039Z,5.95
2023-11-15T16:44:22.806Z,4.07
2023-11-15T16:46:53.370Z,7.13
2023-11-15T16:49:26.272Z,4.47
2023-11-15T16:51:56.971Z,6.53
2023-11-15T16:54:27.061Z,3.67
2023-11-15T16:56:59.117Z,5.57
2023-11-15T16:59:29.197Z,5.45
2023-11-15T17:01:59.223Z,6.40
2023-11-15T17:04:31.996Z,6.90
2023-11-15T17:09:31.897Z,6.13
2023-11-15T17:12:01.624Z,5.53
2023-11-15T17:14:32.571Z,5.97
2023-11-15T17:17:03.546Z,7.60
2023-11-15T17:19:35.767Z,9.20
2023-11-15T17:22:06.365Z,7.32
2023-11-15T17:24:35.934Z,8.70
2023-11-15T17:27:05.585Z,7.23
2023-11-15T17:29:35.681Z,8.70
2023-11-15T17:32:06.277Z,9.33
2023-11-15T17:34:38.742Z,9.43
2023-11-15T17:37:08.442Z,8.70
2023-11-15T17:39:38.001Z,10.43
2023-11-15T17:42:08.745Z,12.50
2023-11-15T17:44:38.953Z,11.43
2023-11-15T17:47:08.756Z,12.10
2023-11-15T17:49:40.888Z,10.50
2023-11-15T17:52:11.369Z,11.07
2023-11-15T17:54:41.001Z,13.23
2023-11-15T17:57:10.584Z,9.77
2023-11-15T17:59:42.775Z,14.87
2023-11-15T18:02:13.460Z,13.00
2023-11-15T18:04:46.063Z,12.97
2023-11-15T18:07:15.754Z,10.63
2023-11-15T18:09:45.294Z,10.30
2023-11-15T18:12:14.992Z,15.23
2023-11-15T18:14:44.668Z,13.60
2023-11-15T18:17:15.010Z,13.90
2023-11-15T18:19:47.174Z,13.80
2023-11-15T18:22:16.748Z,12.48
2023-11-15T18:24:46.394Z,14.97
2023-11-15T18:27:16.168Z,13.23
2023-11-15T18:29:45.789Z,11.50
2023-11-15T18:32:15.576Z,13.27
2023-11-15T18:34:47.725Z,11.10
2023-11-15T18:37:17.322Z,15.20
2023-11-15T18:39:46.876Z,10.53
2023-11-15T18:42:16.858Z,11.37
2023-11-15T18:44:47.249Z,10.07
2023-11-15T18:47:17.248Z,11.93
2023-11-15T18:49:50.279Z,9.93
2023-11-15T18:52:21.548Z,10.27
2023-11-15T18:54:51.470Z,8.47
2023-11-15T18:57:23.259Z,9.50
2023-11-15T18:59:54.698Z,10.67
2023-11-15T19:02:26.144Z,13.00
2023-11-15T19:04:58.514Z,8.23
2023-11-15T19:07:28.133Z,8.90
2023-11-15T19:09:58.933Z,7.37
2023-11-15T19:12:28.650Z,9.57
2023-11-15T19:14:58.338Z,11.90
2023-11-15T19:17:28.064Z,8.80
2023-11-15T19:20:01.901Z,10.67
2023-11-15T19:22:31.523Z,8.97
2023-11-15T19:25:01.168Z,6.10
2023-11-15T19:27:30.792Z,10.50
2023-11-15T19:30:00.429Z,9.27
2023-11-15T19:32:30.602Z,11.40
2023-11-15T19:35:02.871Z,10.93
2023-11-15T19:37:33.731Z,10.68
2023-11-15T19:40:08.510Z,7.77
2023-11-15T19:42:38.164Z,8.77
2023-11-15T19:45:12.672Z,9.97
2023-11-15T19:47:44.032Z,11.60
2023-11-15T19:50:17.042Z,8.60
2023-11-15T19:52:46.909Z,10.70
2023-11-15T19:55:16.906Z,11.13
2023-11-15T19:57:46.598Z,12.33
2023-11-15T20:00:18.110Z,11.57
2023-11-15T20:02:48.369Z,11.20
2023-11-15T20:05:21.392Z,12.83
2023-11-15T20:07:51.074Z,13.30
2023-11-15T20:10:20.810Z,10.80
2023-11-15T20:12:50.457Z,14.40
2023-11-15T20:15:20.202Z,11.47
2023-11-15T20:17:49.866Z,9.67
2023-11-15T20:20:24.134Z,12.17
2023-11-15T20:22:55.760Z,11.80
2023-11-15T20:25:26.182Z,10.90
2023-11-15T20:27:55.770Z,11.77
2023-11-15T20:30:27.084Z,12.87
2023-11-15T20:32:57.509Z,11.33
2023-11-15T20:35:29.789Z,10.10
2023-11-15T20:37:59.895Z,11.40
2023-11-15T20:40:30.536Z,11.67
2023-11-15T20:43:01.585Z,9.27
2023-11-15T20:45:31.316Z,11.27
2023-11-15T20:48:01.421Z,9.20
2023-11-15T20:50:33.695Z,11.07
2023-11-15T20:53:05.018Z,8.50
2023-11-15T20:55:35.160Z,13.33
2023-11-15T20:58:07.861Z,12.30
2023-11-15T21:00:40.313Z,15.37
2023-11-15T21:03:11.273Z,9.10
2023-11-15T21:05:44.894Z,11.77
2023-11-15T21:08:14.625Z,8.67
2023-11-15T21:10:44.979Z,13.33
2023-11-15T21:13:15.848Z,11.60
2023-11-15T21:15:47.102Z,10.30
2023-11-15T21:18:17.275Z,12.73
2023-11-15T21:20:49.602Z,11.27
2023-11-15T21:23:19.720Z,13.88
2023-11-15T21:25:49.291Z,11.50
2023-11-15T21:28:18.930Z,9.50
2023-11-15T21:30:48.660Z,10.93
2023-11-15T21:33:18.400Z,10.77
2023-11-15T21:35:52.901Z,10.10
2023-11-15T21:38:22.934Z,8.90
2023-11-15T21:40:52.620Z,10.60
2023-11-15T21:43:23.952Z,11.13
2023-11-15T21:45:53.602Z,7.80
2023-11-15T21:48:24.099Z,15.43
2023-11-15T21:50:56.725Z,10.07
2023-11-15T21:53:26.407Z,11.45
2023-11-15T21:55:59.008Z,12.43
2023-11-15T21:58:28.722Z,12.15
2023-11-15T22:00:58.311Z,14.67
2023-11-15T22:03:28.368Z,10.23
2023-11-15T22:06:00.617Z,10.43
2023-11-15T22:08:33.167Z,12.88
2023-11-15T22:11:04.696Z,12.48
2023-11-15T22:13:34.394Z,11.57
2023-11-15T22:16:04.071Z,11.23
2023-11-15T22:18:33.860Z,14.43
2023-11-15T22:21:07.734Z,13.53
2023-11-15T22:23:37.428Z,13.63
2023-11-15T22:26:08.994Z,11.00
2023-11-15T22:28:38.609Z,11.13
2023-11-15T22:31:08.581Z,11.53
2023-11-15T22:33:38.206Z,11.37
2023-11-15T22:36:11.218Z,11.93
2023-11-15T22:38:41.042Z,11.47
2023-11-15T22:41:10.729Z,14.23
2023-11-15T22:43:40.611Z,12.33
2023-11-15T22:46:10.365Z,11.20
2023-11-15T22:48:40.171Z,11.73
2023-11-15T22:51:12.551Z,12.67
2023-11-15T22:53:42.521Z,12.93
2023-11-15T22:56:12.620Z,11.43
2023-11-15T22:58:42.279Z,10.20
2023-11-15T23:01:13.202Z,13.57
2023-11-15T23:03:43.380Z,11.27
2023-11-15T23:06:15.838Z,10.70
2023-11-15T23:08:45.721Z,11.55
2023-11-15T23:11:15.804Z,9.63
2023-11-15T23:13:46.877Z,9.37
2023-11-15T23:16:16.665Z,9.60
2023-11-15T23:18:46.334Z,10.00
2023-11-15T23:21:20.476Z,12.90
2023-11-15T23:23:50.117Z,8.93
2023-11-15T23:26:19.754Z,11.50
2023-11-15T23:28:49.394Z,9.63
2023-11-15T23:31:21.541Z,10.27
2023-11-15T23:33:51.286Z,12.70
2023-11-15T23:36:23.701Z,10.93
2023-11-15T23:38:53.867Z,8.93
2023-11-15T23:41:24.441Z,11.57
2023-11-15T23:43:56.281Z,9.93
2023-11-15T23:46:25.914Z,10.03
2023-11-15T23:48:56.930Z,11.97
2023-11-15T23:51:29.296Z,11.93
2023-11-15T23:53:58.941Z,11.25
2023-11-15T23:56:28.566Z,12.90
2023-11-15T23:58:58.694Z,12.60
